Time;durP1;ratioP1;P1;durP2;ratioP2;P2;SDS_P1;SDS_P2;PMS_P1;PMS_P2;Temp;Humidity;BMP_temperature;BMP_pressure;BME280_temperature;BME280_humidity;BME280_pressure;Samples;Min_cycle;Max_cycle;Signal;HPM_P1;HPM_P2
2021/12/10 00:00:32;;;;;;;2.37;1.53;;;;;;;18.62;52.07;98999.22;5090819;28;20777;-63
2021/12/10 00:02:58;;;;;;;2.07;1.17;;;;;;;18.58;52.00;98995.59;5097375;28;20193;-63
2021/12/10 00:05:29;;;;;;;2.47;1.50;;;;;;;18.60;52.03;98993.13;5090228;28;20971;-63
2021/12/10 00:07:55;;;;;;;2.10;1.47;;;;;;;18.59;52.09;98987.81;5102156;28;20454;-63
2021/12/10 00:10:24;;;;;;;2.97;1.40;;;;;;;18.60;51.95;98978.84;5110582;28;20435;-62
2021/12/10 00:12:51;;;;;;;2.90;1.33;;;;;;;18.58;52.04;98969.88;5105962;28;20180;-63
2021/12/10 00:15:18;;;;;;;2.73;1.60;;;;;;;18.64;51.83;98958.81;5103782;28;20455;-63
2021/12/10 00:17:44;;;;;;;2.87;1.40;;;;;;;18.62;51.78;98958.41;5110284;28;20411;-62
2021/12/10 00:20:11;;;;;;;3.63;1.43;;;;;;;18.61;52.01;98948.22;5100195;28;20431;-62
2021/12/10 00:22:41;;;;;;;4.90;1.40;;;;;;;18.65;52.00;98946.13;5110089;28;20169;-63
2021/12/10 00:25:14;;;;;;;2.30;1.13;;;;;;;18.61;51.79;98943.31;5106840;27;20439;-62
2021/12/10 00:27:39;;;;;;;4.17;1.83;;;;;;;18.62;51.91;98938.41;5075549;28;20432;-62
2021/12/10 00:30:18;;;;;;;4.57;1.70;;;;;;;18.59;52.04;98931.47;5110654;28;20423;-62
2021/12/10 00:32:47;;;;;;;3.43;1.50;;;;;;;18.62;51.78;98924.91;5088378;28;20186;-63
2021/12/10 00:35:19;;;;;;;3.10;1.87;;;;;;;18.59;52.00;98914.31;5110639;28;20427;-62
2021/12/10 00:37:45;;;;;;;4.10;1.60;;;;;;;18.60;51.80;98904.50;5120122;28;20802;-62
2021/12/10 00:40:11;;;;;;;2.43;1.40;;;;;;;18.54;52.39;98903.31;5131797;28;20474;-62
2021/12/10 00:42:36;;;;;;;2.10;1.10;;;;;;;18.54;52.05;98897.59;5101399;28;20183;-62
2021/12/10 00:45:07;;;;;;;4.50;1.30;;;;;;;18.62;51.55;98884.09;5096526;28;20995;-62
2021/12/10 00:47:33;;;;;;;2.87;1.57;;;;;;;18.63;51.62;98880.00;5099573;28;20178;-63
2021/12/10 00:49:59;;;;;;;2.90;1.30;;;;;;;18.59;52.09;98865.75;5092674;28;20986;-63
2021/12/10 00:52:24;;;;;;;2.57;1.43;;;;;;;18.57;52.21;98851.03;5097174;28;20178;-63
2021/12/10 00:54:50;;;;;;;2.57;1.47;;;;;;;18.59;51.79;98840.00;5101063;28;20201;-63
2021/12/10 00:57:16;;;;;;;3.33;1.50;;;;;;;18.62;51.88;98833.44;5094577;28;20182;-62
2021/12/10 00:59:42;;;;;;;2.10;1.10;;;;;;;18.55;52.07;98827.78;5094661;28;20229;-62
2021/12/10 01:02:10;;;;;;;3.90;1.40;;;;;;;18.56;51.83;98822.88;5098974;28;20439;-62
2021/12/10 01:04:36;;;;;;;2.43;1.23;;;;;;;18.56;52.13;98817.19;5111136;27;20434;-62
2021/12/10 01:07:05;;;;;;;3.20;1.50;;;;;;;18.54;51.97;98808.19;5104996;27;20464;-63
2021/12/10 01:09:32;;;;;;;2.57;1.23;;;;;;;18.53;52.15;98813.09;5092221;28;20982;-63
2021/12/10 01:12:38;;;;;;;2.90;1.30;;;;;;;18.55;51.97;98806.94;5112983;28;20883;-62
2021/12/10 01:26:24;;;;;;;3.70;1.40;;;;;;;18.54;52.30;98777.56;5093615;28;20477;-62
2021/12/10 01:28:52;;;;;;;2.23;1.30;;;;;;;18.51;52.20;98772.69;5099346;27;21032;-63
2021/12/10 01:31:18;;;;;;;2.77;1.40;;;;;;;18.53;51.98;98766.56;5134174;27;20418;-62
2021/12/10 01:33:44;;;;;;;1.80;1.00;;;;;;;18.53;51.97;98749.41;5134185;27;20457;-62
2021/12/10 01:36:10;;;;;;;2.90;1.30;;;;;;;18.50;51.86;98753.91;5109753;28;20653;-63
2021/12/10 01:38:39;;;;;;;2.70;1.77;;;;;;;18.56;52.12;98743.66;5116146;27;20461;-63
2021/12/10 01:41:07;;;;;;;3.00;1.37;;;;;;;18.52;51.84;98744.94;5116041;27;20239;-63
2021/12/10 01:43:35;;;;;;;3.20;1.47;;;;;;;18.52;52.36;98734.28;5113647;28;20504;-63
2021/12/10 01:46:06;;;;;;;2.80;1.67;;;;;;;18.55;51.99;98729.78;5107178;28;20487;-63
2021/12/10 01:48:43;;;;;;;3.20;1.80;;;;;;;18.50;52.01;98728.19;5098208;28;20962;-63
2021/12/10 01:51:10;;;;;;;2.73;1.40;;;;;;;18.54;52.11;98716.72;5093226;28;20444;-62
2021/12/10 01:53:37;;;;;;;3.10;1.17;;;;;;;18.55;51.96;98712.63;5095874;28;20978;-63
2021/12/10 01:56:10;;;;;;;2.70;1.27;;;;;;;18.54;52.12;98702.44;5113020;28;20458;-62
2021/12/10 01:58:36;;;;;;;2.10;1.20;;;;;;;18.53;52.13;98701.66;5094234;28;20420;-62
2021/12/10 02:01:06;;;;;;;2.60;1.40;;;;;;;18.52;52.05;98705.72;5095453;28;20825;-63
2021/12/10 02:03:32;;;;;;;2.23;1.10;;;;;;;18.54;51.88;98703.28;5083762;28;20273;-63
2021/12/10 02:05:57;;;;;;;3.60;1.80;;;;;;;18.51;52.03;98695.53;5113498;28;20419;-62
2021/12/10 02:08:22;;;;;;;2.40;1.17;;;;;;;18.48;52.07;98682.09;5113190;28;20184;-62
2021/12/10 02:10:48;;;;;;;2.80;1.30;;;;;;;18.50;51.91;98679.63;5094454;28;20274;-62
2021/12/10 02:13:13;;;;;;;2.77;1.70;;;;;;;18.49;52.19;98680.84;5103672;28;20193;-62
2021/12/10 02:15:39;;;;;;;3.07;1.50;;;;;;;18.53;52.15;98670.22;5112878;28;20177;-62
2021/12/10 02:18:05;;;;;;;2.10;1.30;;;;;;;18.53;51.72;98658.78;5109212;28;20185;-62
2021/12/10 02:20:57;;;;;;;3.03;1.53;;;;;;;18.50;51.95;98651.03;5112602;27;20214;-63
2021/12/10 02:23:23;;;;;;;2.57;1.30;;;;;;;18.50;52.02;98636.75;5098564;28;20185;-63
2021/12/10 02:25:48;;;;;;;2.00;1.30;;;;;;;18.48;51.91;98633.50;5111866;28;20797;-63
2021/12/10 02:28:14;;;;;;;3.40;1.60;;;;;;;18.50;51.95;98628.19;5104578;28;20186;-62
2021/12/10 02:30:40;;;;;;;3.07;1.57;;;;;;;18.49;51.79;98614.31;5097465;28;20178;-63
2021/12/10 02:33:06;;;;;;;4.10;1.37;;;;;;;18.50;51.92;98587.34;5106152;27;20471;-63
2021/12/10 02:35:31;;;;;;;2.80;1.40;;;;;;;18.48;52.07;98587.78;5095002;28;20186;-63
2021/12/10 02:37:57;;;;;;;3.40;1.40;;;;;;;18.51;51.85;98581.22;5114141;27;20204;-63
2021/12/10 02:40:23;;;;;;;2.67;1.43;;;;;;;18.51;52.13;98572.63;5132934;27;20220;-62
2021/12/10 02:42:50;;;;;;;3.07;1.40;;;;;;;18.50;52.18;98567.34;5096743;28;20192;-62
2021/12/10 02:45:16;;;;;;;4.47;1.67;;;;;;;18.07;51.49;98564.00;5098770;28;20448;-63
2021/12/10 02:47:43;;;;;;;4.07;1.83;;;;;;;17.65;46.75;98566.38;5098493;28;20454;-63
2021/12/10 02:50:09;;;;;;;4.60;2.27;;;;;;;17.50;47.83;98559.13;5107929;28;20440;-63
2021/12/10 02:52:34;;;;;;;4.00;1.80;;;;;;;17.80;42.38;98548.72;5091419;28;20469;-63
2021/12/10 02:55:00;;;;;;;8.33;2.67;;;;;;;18.04;41.32;98547.75;5097788;28;20504;-63
2021/12/10 02:57:26;;;;;;;21.40;3.20;;;;;;;18.22;41.66;98533.31;5110727;28;20178;-63
2021/12/10 02:59:52;;;;;;;15.27;3.10;;;;;;;18.43;41.37;98531.09;5088987;28;20316;-63
2021/12/10 03:02:18;;;;;;;18.93;3.40;;;;;;;18.70;41.33;98517.75;5078291;28;20439;-63
2021/12/10 03:04:44;;;;;;;12.60;3.23;;;;;;;18.63;41.90;98517.81;5098726;28;20237;-63
2021/12/10 03:07:13;;;;;;;22.13;3.40;;;;;;;18.81;41.54;98497.63;5111518;28;20471;-63
2021/12/10 03:09:43;;;;;;;17.57;3.77;;;;;;;18.98;41.70;98485.97;5102511;28;20941;-63
2021/12/10 03:12:09;;;;;;;15.27;3.40;;;;;;;19.06;41.81;98484.63;5093522;28;20749;-63
2021/12/10 03:14:36;;;;;;;21.53;4.13;;;;;;;19.10;42.29;98476.81;5112126;28;20459;-63
2021/12/10 03:17:06;;;;;;;16.87;3.30;;;;;;;19.06;42.60;98480.97;5101784;28;20432;-63
2021/12/10 03:19:31;;;;;;;18.40;3.60;;;;;;;19.01;42.83;98476.50;5098233;28;20524;-63
2021/12/10 03:21:57;;;;;;;18.47;3.10;;;;;;;18.98;43.41;98463.09;5109302;28;20822;-63
2021/12/10 03:24:24;;;;;;;24.33;3.37;;;;;;;18.95;43.88;98460.25;5102822;28;20185;-63
2021/12/10 03:26:51;;;;;;;12.50;3.53;;;;;;;18.85;44.24;98466.91;5107892;28;20178;-63
2021/12/10 03:29:19;;;;;;;10.47;3.40;;;;;;;18.77;44.85;98463.31;5107721;28;20420;-63
2021/12/10 03:31:44;;;;;;;17.03;3.20;;;;;;;18.77;45.03;98463.31;5101450;28;20427;-63
2021/12/10 03:34:10;;;;;;;11.93;2.83;;;;;;;18.75;45.44;98471.53;5108966;28;20470;-62
2021/12/10 03:36:35;;;;;;;15.00;3.57;;;;;;;18.79;45.55;98466.59;5110146;28;20706;-62
2021/12/10 03:39:01;;;;;;;9.67;2.77;;;;;;;18.73;45.75;98470.34;5122645;27;20633;-62
2021/12/10 03:41:26;;;;;;;13.87;2.70;;;;;;;18.70;45.91;98463.44;5104317;28;20181;-62
2021/12/10 03:43:53;;;;;;;14.33;3.10;;;;;;;18.66;46.28;98454.06;5111343;28;20567;-62
2021/12/10 03:46:18;;;;;;;9.83;2.20;;;;;;;18.68;46.29;98465.09;5111548;28;20182;-63
2021/12/10 03:48:45;;;;;;;15.30;3.03;;;;;;;18.68;46.22;98462.22;5104519;28;20497;-63
2021/12/10 03:51:17;;;;;;;13.27;2.93;;;;;;;18.61;46.82;98454.53;5110922;27;20594;-63
2021/12/10 03:53:43;;;;;;;26.97;3.37;;;;;;;18.66;46.98;98454.06;5106038;28;20531;-63
2021/12/10 03:56:13;;;;;;;19.43;3.00;;;;;;;18.62;46.81;98444.72;5111206;28;20420;-63
2021/12/10 03:58:39;;;;;;;14.03;3.33;;;;;;;18.62;47.00;98441.88;5110153;28;20299;-63
2021/12/10 04:01:05;;;;;;;10.63;2.70;;;;;;;18.56;47.13;98429.28;5100511;28;20475;-63
2021/12/10 04:03:30;;;;;;;17.37;2.53;;;;;;;18.56;47.35;98428.50;5090488;28;20939;-63
2021/12/10 04:05:56;;;;;;;7.87;2.33;;;;;;;18.54;47.60;98413.81;5090683;28;20401;-63
2021/12/10 04:08:21;;;;;;;10.43;3.27;;;;;;;18.58;47.38;98409.69;5090864;28;20174;-63
2021/12/10 04:10:47;;;;;;;11.73;3.30;;;;;;;18.49;47.65;98400.81;5100830;28;20209;-63
2021/12/10 04:13:13;;;;;;;15.13;3.40;;;;;;;18.50;47.86;98402.44;5110463;28;20292;-63
2021/12/10 04:15:39;;;;;;;10.80;2.60;;;;;;;18.52;47.78;98399.16;5100069;28;20179;-63
2021/12/10 04:18:05;;;;;;;10.73;3.03;;;;;;;18.47;47.89;98391.06;5076994;28;20186;-63
2021/12/10 04:20:31;;;;;;;9.33;2.80;;;;;;;18.51;48.12;98391.81;5090211;28;20416;-63
2021/12/10 04:22:58;;;;;;;10.67;2.20;;;;;;;18.48;48.27;98384.91;5090879;28;20630;-63
2021/12/10 04:25:24;;;;;;;11.17;3.10;;;;;;;18.44;48.39;98389.03;5107787;28;20183;-63
2021/12/10 04:27:50;;;;;;;10.03;2.40;;;;;;;18.48;48.23;98389.81;5110164;28;20411;-63
2021/12/10 04:30:16;;;;;;;16.67;2.90;;;;;;;18.41;48.68;98378.47;5110124;28;20427;-63
2021/12/10 04:32:42;;;;;;;11.27;2.53;;;;;;;18.41;48.75;98369.91;5105527;28;20181;-63
2021/12/10 04:35:08;;;;;;;7.70;2.17;;;;;;;18.44;48.29;98369.84;5089951;28;20467;-63
2021/12/10 04:37:33;;;;;;;7.30;2.50;;;;;;;18.42;48.37;98372.31;5101195;28;20186;-63
2021/12/10 04:40:02;;;;;;;9.63;2.50;;;;;;;18.44;48.36;98363.31;5092463;28;20174;-63
2021/12/10 04:42:28;;;;;;;11.03;2.87;;;;;;;18.50;48.82;98358.75;5097887;28;20243;-63
2021/12/10 04:44:57;;;;;;;11.10;2.40;;;;;;;18.47;48.44;98353.91;5090288;28;20895;-63
2021/12/10 04:47:23;;;;;;;11.30;2.53;;;;;;;18.44;48.56;98349.84;5090035;28;20184;-63
2021/12/10 04:49:48;;;;;;;16.33;3.40;;;;;;;18.42;48.80;98349.44;5092690;28;20521;-63
2021/12/10 04:52:14;;;;;;;8.40;2.47;;;;;;;18.45;48.85;98337.19;5095398;28;20432;-63
2021/12/10 04:54:39;;;;;;;10.87;2.23;;;;;;;18.42;49.21;98337.22;5091439;28;20198;-63
2021/12/10 04:57:05;;;;;;;12.10;2.00;;;;;;;18.45;49.15;98325.75;5085022;28;20204;-63
2021/12/10 04:59:32;;;;;;;9.23;2.33;;;;;;;18.45;49.12;98320.03;5110558;28;20282;-63
2021/12/10 05:01:58;;;;;;;13.27;2.63;;;;;;;18.46;48.95;98315.16;5105383;28;20187;-63
2021/12/10 05:04:24;;;;;;;8.83;2.30;;;;;;;18.45;49.26;98317.19;5094124;28;20427;-63
2021/12/10 05:06:50;;;;;;;6.80;1.77;;;;;;;18.41;49.43;98307.84;5091974;28;20415;-63
2021/12/10 05:09:16;;;;;;;10.47;3.00;;;;;;;18.46;49.05;98292.28;5097834;28;20796;-63
2021/12/10 05:11:41;;;;;;;11.40;2.30;;;;;;;18.48;48.99;98296.34;5110207;28;20185;-63
2021/12/10 05:14:09;;;;;;;8.57;2.60;;;;;;;18.47;49.06;98288.97;5110379;28;20202;-63
2021/12/10 05:16:37;;;;;;;10.47;2.50;;;;;;;18.46;49.38;98284.50;5109142;28;20177;-62
2021/12/10 05:19:05;;;;;;;6.10;2.43;;;;;;;18.44;49.11;98283.31;5090394;28;20427;-62
2021/12/10 05:21:31;;;;;;;8.33;2.43;;;;;;;18.50;49.00;98281.59;5109813;28;20447;-62
2021/12/10 05:23:57;;;;;;;5.33;2.00;;;;;;;18.48;49.14;98264.91;5106336;28;20473;-62
2021/12/10 05:26:23;;;;;;;4.50;1.43;;;;;;;18.48;49.43;98267.75;5110336;28;20485;-62
2021/12/10 05:28:48;;;;;;;10.43;2.10;;;;;;;18.49;49.24;98257.94;5109637;28;20894;-62
2021/12/10 05:31:14;;;;;;;7.03;2.00;;;;;;;18.48;49.21;98252.66;5087799;28;20174;-62
2021/12/10 05:33:39;;;;;;;8.60;2.43;;;;;;;18.45;49.59;98245.75;5091691;28;20225;-62
2021/12/10 05:36:05;;;;;;;9.60;2.40;;;;;;;18.48;49.40;98239.19;5093527;28;20174;-63
2021/12/10 05:38:31;;;;;;;8.63;2.13;;;;;;;18.47;49.58;98231.84;5106454;27;20184;-63
2021/12/10 05:40:59;;;;;;;10.67;2.37;;;;;;;18.45;49.53;98225.75;5133738;27;20181;-63
2021/12/10 05:43:24;;;;;;;9.10;2.20;;;;;;;18.48;49.46;98218.38;5134152;27;20177;-63
2021/12/10 05:45:50;;;;;;;5.13;1.80;;;;;;;18.46;49.63;98204.50;5131751;27;20415;-63
2021/12/10 05:48:16;;;;;;;6.20;1.93;;;;;;;18.53;49.38;98198.69;5104888;28;20186;-63
2021/12/10 05:50:41;;;;;;;11.07;2.47;;;;;;;18.45;49.64;98199.22;5113535;28;20246;-63
2021/12/10 05:53:06;;;;;;;8.17;2.10;;;;;;;18.46;49.38;98187.38;5114017;28;20170;-63
2021/12/10 05:55:32;;;;;;;8.83;1.90;;;;;;;18.44;49.71;98183.31;5091714;28;20672;-63
2021/12/10 05:57:58;;;;;;;7.63;1.60;;;;;;;18.44;49.78;98169.84;5088841;28;20224;-63
2021/12/10 06:00:33;;;;;;;4.93;2.07;;;;;;;18.47;49.63;98162.47;5093052;28;20234;-63
2021/12/10 06:02:59;;;;;;;9.33;2.03;;;;;;;18.51;49.83;98163.22;5104997;28;20232;-63
2021/12/10 06:05:24;;;;;;;6.70;1.87;;;;;;;18.47;49.65;98157.53;5092615;28;20504;-63
2021/12/10 06:07:50;;;;;;;12.03;2.70;;;;;;;18.42;49.74;98146.59;5093259;28;20171;-63
2021/12/10 06:10:16;;;;;;;6.10;1.80;;;;;;;18.53;49.72;98158.69;5095675;28;20201;-63
2021/12/10 06:12:42;;;;;;;4.50;2.00;;;;;;;18.52;49.33;98145.63;5107996;28;20177;-63
2021/12/10 06:15:08;;;;;;;6.17;1.60;;;;;;;18.46;49.43;98138.78;5111577;28;20546;-63
2021/12/10 06:17:33;;;;;;;6.87;1.70;;;;;;;18.49;49.54;98126.50;5110056;28;20438;-63
2021/12/10 06:19:59;;;;;;;5.53;1.80;;;;;;;18.50;49.77;98130.97;5112579;28;20797;-63
2021/12/10 06:22:25;;;;;;;10.47;1.87;;;;;;;18.49;49.67;98126.50;5113121;27;20189;-63
2021/12/10 06:24:50;;;;;;;8.00;1.90;;;;;;;18.44;49.98;98121.28;5113254;28;20170;-63
2021/12/10 06:27:16;;;;;;;8.93;2.17;;;;;;;18.47;49.84;98119.63;5108068;27;20630;-63
2021/12/10 06:29:42;;;;;;;7.53;2.23;;;;;;;18.48;49.53;98113.47;5096731;28;20179;-63
2021/12/10 06:32:09;;;;;;;5.93;1.43;;;;;;;18.44;49.70;98115.56;5091267;28;20182;-63
2021/12/10 06:34:34;;;;;;;6.57;2.10;;;;;;;18.46;49.72;98110.22;5105435;28;20464;-63
2021/12/10 06:37:00;;;;;;;6.93;2.07;;;;;;;18.48;49.75;98106.94;5097046;27;20471;-63
2021/12/10 06:39:25;;;;;;;4.37;1.93;;;;;;;18.47;49.82;98106.13;5112918;27;20239;-62
2021/12/10 06:41:51;;;;;;;7.30;2.00;;;;;;;18.44;49.97;98104.16;5100823;28;20189;-62
2021/12/10 06:44:16;;;;;;;4.63;1.87;;;;;;;18.43;50.01;98096.81;5111707;28;20269;-62
2021/12/10 06:46:42;;;;;;;5.97;1.57;;;;;;;18.48;49.83;98089.78;5108448;28;20180;-63
2021/12/10 06:49:07;;;;;;;5.83;1.50;;;;;;;18.43;49.85;98096.00;5110929;28;20185;-63
2021/12/10 06:51:32;;;;;;;7.50;1.90;;;;;;;18.50;49.88;98099.53;5083635;28;20611;-63
2021/12/10 06:53:58;;;;;;;8.57;1.73;;;;;;;18.48;50.03;98095.50;5111809;28;20194;-63
2021/12/10 06:56:23;;;;;;;5.87;2.10;;;;;;;18.45;50.09;98087.78;5112427;28;20652;-63
2021/12/10 06:58:50;;;;;;;5.83;1.67;;;;;;;18.42;49.81;98080.09;5093611;28;20222;-63
2021/12/10 07:01:21;;;;;;;5.87;1.90;;;;;;;18.46;50.06;98093.06;5097654;28;20230;-63
2021/12/10 07:03:47;;;;;;;3.77;1.60;;;;;;;18.53;49.68;98092.16;5091357;28;20408;-63
2021/12/10 07:06:12;;;;;;;4.97;1.63;;;;;;;18.49;49.64;98106.50;5082992;28;20847;-63
2021/12/10 07:08:39;;;;;;;3.83;1.70;;;;;;;18.44;49.85;98107.00;5111241;28;20209;-63
2021/12/10 07:11:06;;;;;;;4.47;1.43;;;;;;;18.46;50.15;98113.06;5105988;28;20202;-63
2021/12/10 07:13:32;;;;;;;5.30;1.70;;;;;;;18.48;50.22;98121.22;5096028;28;20444;-63
2021/12/10 07:15:58;;;;;;;5.20;1.60;;;;;;;18.48;49.87;98124.06;5094031;28;20842;-63
2021/12/10 07:18:23;;;;;;;5.77;1.57;;;;;;;18.50;49.97;98124.44;5074037;28;20423;-63
2021/12/10 07:20:50;;;;;;;3.70;1.40;;;;;;;18.51;49.64;98121.16;5103080;28;20177;-63
2021/12/10 07:23:16;;;;;;;5.70;1.60;;;;;;;18.41;49.98;98129.91;5111357;28;20653;-63
2021/12/10 07:25:41;;;;;;;5.40;1.93;;;;;;;18.44;49.90;98135.56;5111823;28;20419;-63
2021/12/10 07:28:06;;;;;;;8.93;1.70;;;;;;;18.44;49.99;98141.28;5108184;28;20173;-63
2021/12/10 07:30:32;;;;;;;4.43;1.90;;;;;;;18.46;49.95;98144.50;5111701;28;20173;-63
2021/12/10 07:32:58;;;;;;;3.00;1.23;;;;;;;18.48;49.64;98139.19;5107040;28;20186;-62
2021/12/10 07:35:23;;;;;;;5.30;1.60;;;;;;;18.45;50.28;98125.75;5110196;28;20424;-62
2021/12/10 07:37:49;;;;;;;7.83;1.63;;;;;;;18.48;50.16;98130.63;5120081;27;20236;-62
2021/12/10 07:40:19;;;;;;;7.00;1.83;;;;;;;18.47;50.15;98134.69;5102927;27;20242;-63
2021/12/10 07:42:45;;;;;;;6.57;1.67;;;;;;;18.46;49.92;98143.72;5110680;28;20552;-63
2021/12/10 07:45:11;;;;;;;3.80;1.40;;;;;;;18.48;49.97;98144.09;5104181;28;20432;-63
2021/12/10 07:47:37;;;;;;;5.43;2.07;;;;;;;18.53;49.72;98138.69;5101065;27;20178;-63
2021/12/10 07:50:17;;;;;;;4.80;1.50;;;;;;;18.52;49.73;98136.25;5089794;28;20175;-63
2021/12/10 07:52:44;;;;;;;2.83;1.27;;;;;;;18.55;50.09;98136.19;5102716;28;20427;-63
2021/12/10 07:55:11;;;;;;;8.10;1.47;;;;;;;18.54;49.85;98145.19;5111547;27;20949;-63
2021/12/10 07:57:37;;;;;;;4.37;1.80;;;;;;;18.53;50.02;98140.72;5101243;28;20479;-63
2021/12/10 08:00:05;;;;;;;4.47;1.37;;;;;;;18.52;49.81;98130.56;5095386;28;20798;-63
2021/12/10 08:02:30;;;;;;;4.60;1.60;;;;;;;18.56;49.65;98134.16;5091298;28;20209;-63
2021/12/10 08:04:56;;;;;;;5.57;1.97;;;;;;;18.52;49.78;98137.06;5095681;28;20459;-63
2021/12/10 08:07:21;;;;;;;3.03;1.30;;;;;;;18.50;50.04;98139.56;5089354;28;20697;-63
2021/12/10 08:09:47;;;;;;;3.93;1.40;;;;;;;18.57;49.98;98130.06;5094712;28;20208;-63
2021/12/10 08:12:12;;;;;;;6.50;1.77;;;;;;;18.50;50.03;98130.97;5114120;27;20486;-63
2021/12/10 08:14:38;;;;;;;5.00;1.77;;;;;;;18.48;50.26;98136.31;5110382;28;20202;-63
2021/12/10 08:17:04;;;;;;;3.83;1.30;;;;;;;18.55;49.82;98136.19;5111150;28;20223;-63
2021/12/10 08:19:29;;;;;;;9.30;1.97;;;;;;;18.50;49.96;98133.84;5100595;28;20188;-63
2021/12/10 08:21:55;;;;;;;3.23;1.50;;;;;;;18.47;50.23;98140.41;5099158;28;20485;-63
2021/12/10 08:24:21;;;;;;;5.77;1.73;;;;;;;18.51;50.22;98140.38;5109726;28;20178;-63
2021/12/10 08:26:46;;;;;;;3.80;1.50;;;;;;;18.50;50.03;98130.16;5096442;28;20178;-63
2021/12/10 08:29:12;;;;;;;4.40;1.80;;;;;;;18.48;50.07;98141.22;5089828;28;20185;-63
2021/12/10 08:31:38;;;;;;;3.20;1.80;;;;;;;18.51;50.29;98131.78;5097517;28;20181;-63
2021/12/10 08:34:04;;;;;;;3.87;1.50;;;;;;;18.53;50.31;98132.97;5089685;28;20817;-63
2021/12/10 08:36:31;;;;;;;3.30;1.43;;;;;;;18.48;50.04;98119.19;5092939;28;20263;-62
2021/12/10 08:38:56;;;;;;;4.70;1.50;;;;;;;18.51;50.03;98123.22;5107614;28;20868;-62
2021/12/10 08:41:24;;;;;;;4.17;1.30;;;;;;;18.42;50.27;98115.19;5092591;28;20416;-62
2021/12/10 08:43:50;;;;;;;3.57;1.60;;;;;;;18.47;50.12;98105.31;5089574;28;20200;-62
2021/12/10 08:46:16;;;;;;;6.97;1.80;;;;;;;18.48;50.27;98089.78;5072559;28;20421;-62
2021/12/10 08:48:41;;;;;;;3.93;1.50;;;;;;;18.51;50.40;98089.72;5101553;28;20910;-62
2021/12/10 08:51:13;;;;;;;3.17;1.50;;;;;;;18.46;50.34;98087.38;5092271;28;20314;-62
2021/12/10 08:53:38;;;;;;;5.20;1.70;;;;;;;18.49;50.01;98091.41;5098146;28;21766;-62
2021/12/10 08:56:04;;;;;;;5.40;1.40;;;;;;;18.52;50.10;98085.63;5109971;28;20489;-62
2021/12/10 08:58:29;;;;;;;6.63;1.70;;;;;;;18.49;50.42;98083.66;5089173;28;20196;-62
2021/12/10 09:01:01;;;;;;;3.40;1.20;;;;;;;18.50;50.20;98075.88;5097293;28;20732;-62
2021/12/10 09:03:26;;;;;;;5.13;1.60;;;;;;;18.47;50.16;98068.97;5094698;28;20524;-63
2021/12/10 09:05:52;;;;;;;5.70;1.40;;;;;;;18.48;50.36;98064.06;5089504;28;20416;-63
2021/12/10 09:08:18;;;;;;;6.70;1.60;;;;;;;18.48;50.11;98059.19;5099222;28;20249;-63
2021/12/10 09:10:44;;;;;;;4.13;1.53;;;;;;;18.49;50.25;98051.41;5093328;28;20444;-63
2021/12/10 09:13:14;;;;;;;4.97;1.50;;;;;;;18.49;50.30;98046.50;5077955;28;20247;-63
2021/12/10 09:15:51;;;;;;;2.80;1.30;;;;;;;18.52;50.22;98045.63;5108024;28;20514;-62
2021/12/10 09:18:16;;;;;;;4.83;1.50;;;;;;;18.56;50.05;98045.59;5112030;28;20415;-63
2021/12/10 09:20:45;;;;;;;3.27;1.57;;;;;;;18.54;50.38;98046.00;5105558;28;20430;-63
2021/12/10 09:23:12;;;;;;;4.00;1.57;;;;;;;18.51;50.01;98048.94;5113469;28;20184;-63
2021/12/10 09:25:38;;;;;;;5.40;1.57;;;;;;;18.48;50.56;98046.94;5086081;28;20851;-63
2021/12/10 09:28:04;;;;;;;3.80;1.50;;;;;;;18.46;50.58;98041.66;5113963;28;20423;-63
2021/12/10 09:30:30;;;;;;;5.00;1.87;;;;;;;18.50;50.23;98048.13;5111694;28;20862;-63
2021/12/10 09:32:56;;;;;;;3.87;1.60;;;;;;;18.49;50.46;98040.78;5105191;28;20181;-63
2021/12/10 09:35:22;;;;;;;4.37;1.50;;;;;;;18.52;49.92;98039.91;5113421;28;20458;-63
2021/12/10 09:37:48;;;;;;;2.60;1.20;;;;;;;18.55;50.21;98038.22;5101294;27;20189;-63
2021/12/10 09:40:18;;;;;;;3.33;1.40;;;;;;;18.49;50.17;98037.94;5102818;28;20419;-63
2021/12/10 09:42:43;;;;;;;4.10;1.70;;;;;;;18.52;50.35;98033.41;5113119;28;20551;-62
2021/12/10 09:45:10;;;;;;;7.80;1.80;;;;;;;18.47;50.42;98031.81;5106796;28;20441;-62
2021/12/10 09:47:36;;;;;;;3.63;1.60;;;;;;;18.47;50.16;98036.75;5103029;28;20177;-62
2021/12/10 09:50:02;;;;;;;4.20;1.40;;;;;;;18.48;50.15;98041.22;5101699;28;20534;-62
2021/12/10 09:52:27;;;;;;;3.87;1.40;;;;;;;18.49;50.14;98025.69;5101977;28;20425;-62
2021/12/10 09:54:53;;;;;;;2.67;1.40;;;;;;;18.49;50.00;98034.25;5084967;28;20320;-63
2021/12/10 09:57:24;;;;;;;3.40;1.43;;;;;;;18.50;50.08;98022.41;5093361;28;20230;-63
2021/12/10 09:59:51;;;;;;;6.17;1.80;;;;;;;18.52;50.05;98016.25;5094096;28;20233;-63
2021/12/10 10:02:17;;;;;;;5.03;1.70;;;;;;;18.50;50.37;98007.28;5097453;28;22165;-63
2021/12/10 10:04:48;;;;;;;4.13;1.47;;;;;;;18.53;50.13;98006.44;5096877;28;20424;-63
2021/12/10 10:07:15;;;;;;;3.83;1.50;;;;;;;18.49;50.08;98003.66;5105768;27;20626;-63
2021/12/10 10:09:41;;;;;;;5.60;1.40;;;;;;;18.48;49.96;97995.50;5097340;28;20439;-63
2021/12/10 10:12:21;;;;;;;2.80;1.50;;;;;;;18.48;50.49;97995.50;5094852;28;20496;-63
2021/12/10 10:14:46;;;;;;;4.20;1.63;;;;;;;18.44;50.39;97980.47;5098645;28;20547;-63
2021/12/10 10:17:12;;;;;;;6.77;1.40;;;;;;;18.47;50.17;97974.69;5093927;28;20428;-63
2021/12/10 10:19:38;;;;;;;2.60;1.20;;;;;;;18.53;50.19;97986.44;5105347;28;20189;-62
2021/12/10 10:22:06;;;;;;;2.40;1.30;;;;;;;18.47;50.22;97980.41;5113114;28;20178;-62
2021/12/10 10:24:33;;;;;;;2.63;1.57;;;;;;;18.51;50.18;97974.66;5102131;28;20446;-62
2021/12/10 10:27:15;;;;;;;4.20;2.03;;;;;;;18.48;50.08;97979.19;5094516;28;20456;-62
2021/12/10 10:29:43;;;;;;;3.17;1.80;;;;;;;18.49;50.12;97980.78;5097420;28;20787;-62
2021/12/10 10:32:13;;;;;;;2.43;1.20;;;;;;;18.51;50.26;97974.66;5100178;27;20444;-62
2021/12/10 10:34:46;;;;;;;3.00;1.30;;;;;;;18.55;50.08;97967.59;5092891;28;20460;-62
2021/12/10 10:37:11;;;;;;;4.77;2.13;;;;;;;18.53;50.00;97975.81;5087046;27;20542;-62
2021/12/10 10:39:38;;;;;;;3.60;1.40;;;;;;;18.51;50.36;97966.88;5107447;27;20423;-62
2021/12/10 10:42:09;;;;;;;4.10;1.70;;;;;;;18.47;50.35;97963.25;5092879;28;20223;-62
2021/12/10 10:44:34;;;;;;;4.80;1.50;;;;;;;18.50;50.09;97964.44;5107147;28;20427;-63
2021/12/10 10:47:00;;;;;;;3.83;1.63;;;;;;;18.49;50.32;97968.53;5091215;28;20409;-63
2021/12/10 10:49:39;;;;;;;4.60;2.13;;;;;;;18.55;50.25;97963.94;5096198;28;20274;-63
2021/12/10 10:52:29;;;;;;;2.60;1.20;;;;;;;18.51;50.12;97969.72;5092147;28;20170;-63
2021/12/10 10:54:55;;;;;;;3.33;1.40;;;;;;;18.49;50.40;97966.50;5094043;28;20502;-63
2021/12/10 10:57:25;;;;;;;2.30;1.30;;;;;;;18.54;50.37;97959.47;5077105;28;20799;-63
2021/12/10 10:59:56;;;;;;;3.20;1.63;;;;;;;18.52;50.20;97961.97;5103931;28;20869;-63
2021/12/10 11:02:21;;;;;;;4.30;1.47;;;;;;;18.54;50.35;97963.16;5096028;28;20785;-63
2021/12/10 11:04:49;;;;;;;3.73;1.67;;;;;;;18.47;50.38;97957.53;5091543;28;20421;-63
2021/12/10 11:07:23;;;;;;;5.20;1.40;;;;;;;18.51;50.61;97961.16;5075997;28;20228;-63
2021/12/10 11:09:49;;;;;;;3.60;1.77;;;;;;;18.49;50.52;97957.94;5109686;28;20957;-63
2021/12/10 11:12:20;;;;;;;3.37;1.50;;;;;;;18.48;50.49;97967.75;5101786;28;20420;-63
2021/12/10 11:14:50;;;;;;;4.27;1.60;;;;;;;18.49;50.23;97957.94;5100416;28;20248;-63
2021/12/10 11:17:28;;;;;;;4.30;1.80;;;;;;;18.54;50.41;97957.44;5103135;28;20440;-63
2021/12/10 11:20:02;;;;;;;4.63;1.57;;;;;;;18.53;50.45;97960.72;5095400;28;20428;-63
2021/12/10 11:22:28;;;;;;;3.40;1.43;;;;;;;18.52;50.46;97956.25;5091752;28;20882;-63
2021/12/10 11:24:59;;;;;;;3.23;1.30;;;;;;;18.46;50.36;97955.94;5106274;27;20507;-62
2021/12/10 11:27:34;;;;;;;7.37;3.97;;;;;;;17.91;45.44;97952.03;5101960;28;20252;-62
2021/12/10 11:30:02;;;;;;;5.77;3.30;;;;;;;17.71;48.89;97954.00;5106212;28;21002;-62
2021/12/10 11:32:37;;;;;;;8.70;4.10;;;;;;;17.71;45.03;97951.94;5101530;28;20439;-63
2021/12/10 11:35:31;;;;;;;9.30;4.90;;;;;;;17.85;42.18;97954.56;5104438;28;20477;-62
2021/12/10 11:38:08;;;;;;;8.43;3.90;;;;;;;18.17;40.84;97949.09;5101743;27;20803;-63
2021/12/10 11:40:35;;;;;;;5.93;3.60;;;;;;;18.64;41.29;97956.41;5082639;28;20516;-62
2021/12/10 11:43:33;;;;;;;7.07;3.87;;;;;;;18.86;41.37;97951.88;5094865;28;20857;-62